ADDS METAR Data INFO
IDs: Format: Raw Decoded Include TAF

Data at: 1351 UTC 23 Jan 2018

METAR for:KJAQ (Jackson/Westover Fld, CA, US)
Text:KJAQ 231335Z AUTO 00000KT 10SM CLR 05/05 A3025 RMK AO1 T00450045
Temperature: 4.5°C ( 40°F)
Dewpoint: 4.5°C ( 40°F) [RH = 100%]
Pressure (altimeter):30.25 inches Hg (1024.5 mb)
Winds:calm
Visibility:10 or more sm (16+ km)
Ceiling:at least 12,000 feet AGL
Clouds:sky clear below 12,000 feet AGL
QC Flag:automated observation with no human augmentation
Text:KJAQ 231315Z AUTO 00000KT 4SM SCT022 05/05 A3024 RMK AO1 T00470047
Temperature: 4.7°C ( 40°F)
Dewpoint: 4.7°C ( 40°F) [RH = 100%]
Pressure (altimeter):30.24 inches Hg (1024.1 mb)
Winds:calm
Visibility: 4 sm ( 6 km)
Ceiling:at least 12,000 feet AGL
Clouds: scattered clouds at 2200 feet AGL
QC Flag:automated observation with no human augmentation
Text:KJAQ 231255Z AUTO 00000KT 1SM BKN001 OVC022 05/05 A3024 RMK AO1 VIS 1/2V3 T00510051
Temperature: 5.1°C ( 41°F)
Dewpoint: 5.1°C ( 41°F) [RH = 100%]
Pressure (altimeter):30.24 inches Hg (1024.1 mb)
Winds:calm
Visibility: 1.00 sm ( 1.61 km)
Ceiling:100 feet AGL
Clouds: broken clouds at 100 feet AGL, overcast cloud deck at 2200 feet AGL
QC Flag:automated observation with no human augmentation